EDT,Max TemperatureF,Mean TemperatureF,Min TemperatureF,Max Dew PointF,MeanDew PointF,Min DewpointF,Max Humidity, Mean Humidity, Min Humidity, Max Sea Level PressureIn, Mean Sea Level PressureIn, Min Sea Level PressureIn, Max VisibilityMiles, Mean VisibilityMiles, Min VisibilityMiles, Max Wind SpeedMPH, Mean Wind SpeedMPH, Max Gust SpeedMPH,PrecipitationIn, CloudCover, Events, WindDirDegrees
2014-3-1,42,30,19,27,16,3,93,66,35,30.24,30.15,30.07,10,8,2,20,12,28,0.00,6,Snow,351
2014-3-2,19,14,10,18,9,1,93,79,56,30.32,30.26,30.20,10,4,1,21,13,26,0.02,7,Snow,26
2014-3-3,10,8,5,2,-2,-4,73,67,61,30.49,30.43,30.34,10,10,10,17,10,,0.00,1,,11
2014-3-4,21,13,5,10,3,-4,73,62,40,30.45,30.33,30.24,10,10,10,9,5,,0.00,6,,111
2014-3-5,21,19,16,13,10,6,74,67,59,30.51,30.40,30.25,10,10,10,15,8,22,0.00,4,,37
2014-3-6,34,25,16,22,12,2,85,62,40,30.49,30.34,30.17,10,10,10,16,9,18,0.00,0,,77
2014-3-7,45,36,27,29,23,16,79,63,51,30.15,30.03,29.92,10,10,8,18,10,26,0.00,0,,131
2014-3-8,37,30,23,31,26,17,93,88,73,30.17,30.04,29.91,10,4,1,12,7,,0.01,7,Snow,327
2014-3-9,37,28,19,25,21,16,89,76,57,30.26,30.13,29.87,10,10,8,18,6,25,0.00,2,,240
2014-3-10,57,46,37,39,34,25,73,63,51,29.87,29.71,29.57,10,10,10,25,17,31,0.00,4,,221
2014-3-11,48,42,35,40,37,33,93,82,74,29.72,29.67,29.64,9,6,3,15,8,,0.01,3,,239
2014-3-12,39,26,14,36,25,5,100,92,67,29.96,29.57,29.35,10,2,0,40,20,53,0.25,8,Fog-Rain-Snow,5
2014-3-13,30,18,12,13,6,3,71,63,48,30.19,30.08,29.94,10,10,10,21,16,31,0.00,6,,300
2014-3-14,57,44,30,38,27,16,68,52,41,30.04,29.80,29.62,10,10,10,30,17,40,0.01,4,Rain,194
2014-3-15,41,36,28,32,29,22,85,77,67,30.24,29.98,29.74,10,10,10,24,15,,0.00,6,,258
2014-3-16,28,22,16,21,12,4,81,71,59,30.38,30.30,30.19,10,10,9,21,16,28,0.00,6,Snow,30
2014-3-17,28,21,14,21,13,3,85,71,53,30.17,30.02,29.93,10,10,10,20,12,24,0.00,0,,38
2014-3-18,46,35,24,31,26,20,89,78,54,30.05,29.99,29.91,10,10,10,13,4,,0.00,0,,53
2014-3-19,50,44,37,46,40,29,93,80,58,29.88,29.75,29.66,10,10,4,28,18,39,0.08,7,Rain,187
2014-3-20,37,35,33,33,29,26,89,79,70,30.06,29.94,29.85,10,9,7,24,19,31,0.00,8,,249
2014-3-21,44,36,28,34,27,24,89,76,65,30.12,30.01,29.75,10,10,8,21,7,30,0.00,3,,170
2014-3-22,53,42,34,36,31,28,93,81,58,30.16,29.95,29.64,10,9,4,24,13,43,0.00,7,Rain,256
2014-3-23,32,26,19,29,15,11,93,73,63,30.37,30.29,30.18,10,9,3,18,13,25,0.00,8,Snow,349
2014-3-24,28,24,19,18,14,12,86,68,53,30.36,30.27,30.11,10,8,2,15,5,,0.00,5,Snow,229
2014-3-25,35,28,21,27,20,10,93,76,37,30.10,29.99,29.91,10,6,0,23,14,32,0.00,6,Fog-Snow,297
2014-3-26,25,21,17,19,13,6,93,71,55,30.37,30.23,30.08,10,8,1,22,15,28,0.00,5,Snow,349
2014-3-27,50,36,24,36,18,11,73,49,35,30.27,30.04,29.78,10,10,9,25,16,32,0.13,6,Rain,159
2014-3-28,55,45,34,46,39,32,93,79,49,30.18,29.85,29.66,10,9,2,33,18,48,0.11,7,Rain,223
2014-3-29,39,34,32,34,31,29,100,91,78,30.19,30.05,29.95,10,5,0,26,11,33,0.09,7,Fog-Snow,26
2014-3-30,36,33,30,32,28,24,100,82,67,30.17,30.10,30.01,10,9,2,23,16,29,0.00,3,Snow,306
2014-3-31,51,36,30,30,25,21,82,64,41,30.24,30.17,30.05,10,10,6,10,2,,0.00,0,,47